Time;durP1;ratioP1;P1;durP2;ratioP2;P2;SDS_P1;SDS_P2;PMS_P1;PMS_P2;Temp;Humidity;BMP_temperature;BMP_pressure;BME280_temperature;BME280_humidity;BME280_pressure;Samples;Min_cycle;Max_cycle;Signal;HPM_P1;HPM_P2
2023/01/20 00:01:10;;;;;;;8.65;3.78;;;;;;;;;;5069621;28;20402;-62
2023/01/20 00:03:37;;;;;;;8.98;4.18;;;;;;;;;;5060836;28;20502;-62
2023/01/20 00:06:03;;;;;;;9.98;4.13;;;-0.60;99.90;;;;;;5062224;28;20043;-62
2023/01/20 00:08:29;;;;;;;13.15;5.35;;;;;;;;;;5052153;28;20056;-62
2023/01/20 00:31:29;;;;;;;8.38;4.43;;;;;;;;;;5025839;28;20103;-67
2023/01/20 00:33:56;;;;;;;10.93;4.50;;;;;;;;;;5012835;28;20049;-67
2023/01/20 00:36:23;;;;;;;10.30;4.80;;;;;;;;;;5029947;28;20583;-67
2023/01/20 00:38:49;;;;;;;11.52;5.15;;;-1.00;99.90;;;;;;5023773;28;20046;-68
2023/01/20 00:41:16;;;;;;;8.50;5.03;;;-1.00;99.90;;;;;;5024818;28;20045;-67
2023/01/20 00:43:42;;;;;;;12.18;5.60;;;-1.00;99.90;;;;;;5029705;28;20045;-67
2023/01/20 00:46:08;;;;;;;13.70;6.45;;;-0.90;99.90;;;;;;5026450;28;20033;-68
2023/01/20 00:48:35;;;;;;;11.40;5.88;;;;;;;;;;5027190;28;20383;-68
2023/01/20 00:51:01;;;;;;;12.10;6.68;;;-0.60;99.90;;;;;;5027709;28;20069;-67
2023/01/20 00:53:27;;;;;;;12.88;7.10;;;-0.80;99.90;;;;;;5022249;28;20030;-66
2023/01/20 00:55:52;;;;;;;12.63;7.53;;;-0.80;99.90;;;;;;5019118;28;20071;-66
2023/01/20 00:58:18;;;;;;;14.13;7.35;;;;;;;;;;5019711;28;20088;-66
2023/01/20 01:00:48;;;;;;;14.85;8.27;;;;;;;;;;5027854;28;20041;-66
2023/01/20 01:03:14;;;;;;;18.25;8.95;;;-0.90;99.90;;;;;;5023566;28;20490;-66
2023/01/20 01:05:39;;;;;;;18.42;9.15;;;-0.70;99.90;;;;;;5016780;28;20038;-66
2023/01/20 01:08:05;;;;;;;15.75;8.40;;;-0.80;99.90;;;;;;5021683;28;20038;-66
2023/01/20 01:10:31;;;;;;;16.98;8.73;;;;;;;;;;5025250;28;20073;-66
2023/01/20 01:13:01;;;;;;;19.23;9.05;;;;;;;;;;5021706;28;20041;-66
2023/01/20 01:15:27;;;;;;;16.92;9.23;;;;;;;;;;5021126;28;20053;-65
2023/01/20 01:17:53;;;;;;;18.90;9.63;;;;;;;;;;5016065;28;20487;-66
2023/01/20 01:20:20;;;;;;;20.58;10.25;;;;;;;;;;5012243;28;20045;-66
2023/01/20 01:22:45;;;;;;;18.05;9.60;;;;;;;;;;5024747;28;20044;-66
2023/01/20 01:25:11;;;;;;;19.98;9.93;;;-0.90;99.90;;;;;;5033005;28;20041;-65
2023/01/20 01:27:37;;;;;;;18.92;10.35;;;;;;;;;;5001935;28;20561;-66
2023/01/20 01:30:03;;;;;;;21.00;10.88;;;;;;;;;;5034006;28;20551;-65
2023/01/20 01:32:29;;;;;;;17.65;10.05;;;;;;;;;;5024431;28;20041;-66
2023/01/20 01:34:55;;;;;;;18.38;10.30;;;-0.40;99.90;;;;;;5033027;28;20048;-65
2023/01/20 01:37:21;;;;;;;22.73;10.82;;;;;;;;;;5027058;28;20037;-65
2023/01/20 01:39:47;;;;;;;18.83;10.95;;;;;;;;;;5028176;28;20045;-66
2023/01/20 01:42:16;;;;;;;17.35;9.75;;;0.10;99.90;;;;;;5033558;28;20037;-65
2023/01/20 01:45:09;;;;;;;17.63;9.80;;;-0.90;99.90;;;;;;5028702;28;20048;-65
2023/01/20 01:47:49;;;;;;;16.30;8.80;;;0.20;99.90;;;;;;5001249;28;20499;-65
2023/01/20 01:50:18;;;;;;;17.25;8.90;;;;;;;;;;5035927;28;20085;-66
2023/01/20 01:52:46;;;;;;;17.77;9.05;;;;;;;;;;5032980;28;20065;-66
2023/01/20 01:55:13;;;;;;;16.83;9.00;;;;;;;;;;5029905;28;20688;-65
2023/01/20 01:57:39;;;;;;;16.23;8.98;;;-0.30;99.90;;;;;;5009873;28;20053;-65
2023/01/20 02:00:05;;;;;;;13.98;7.63;;;0.10;99.90;;;;;;5023811;28;20033;-66
2023/01/20 02:02:31;;;;;;;14.02;6.80;;;-0.30;99.90;;;;;;5026098;28;20053;-65
2023/01/20 02:04:57;;;;;;;12.73;6.80;;;-0.20;99.90;;;;;;5020654;28;20065;-65
2023/01/20 02:07:23;;;;;;;14.00;7.03;;;;;;;;;;5010351;28;20134;-65
2023/01/20 02:09:49;;;;;;;12.50;6.57;;;;;;;;;;5033227;28;20564;-66
2023/01/20 02:12:18;;;;;;;14.52;6.80;;;;;;;;;;5026724;28;20099;-66
2023/01/20 02:14:50;;;;;;;13.63;6.43;;;;;;;;;;5031627;28;20037;-65
2023/01/20 02:17:29;;;;;;;13.02;6.05;;;;;;;;;;5030701;28;20037;-65
2023/01/20 02:20:07;;;;;;;14.60;6.45;;;;;;;;;;5022729;28;20129;-66
2023/01/20 02:22:46;;;;;;;10.27;5.30;;;;;;;;;;5032135;28;20037;-65
2023/01/20 02:25:15;;;;;;;11.35;5.70;;;;;;;;;;5022912;28;20048;-67
2023/01/20 02:27:50;;;;;;;11.65;5.70;;;;;;;;;;5030061;28;20073;-67
2023/01/20 02:30:35;;;;;;;9.05;4.90;;;;;;;;;;5024527;28;20037;-67
2023/01/20 02:33:19;;;;;;;10.73;4.97;;;;;;;;;;5000805;28;20176;-68
2023/01/20 02:35:52;;;;;;;10.70;4.57;;;-1.10;99.90;;;;;;5022136;28;20053;-67
2023/01/20 02:38:20;;;;;;;10.90;5.32;;;;;;;;;;5018694;28;20478;-67
2023/01/20 02:40:55;;;;;;;11.20;5.28;;;;;;;;;;5028784;28;20133;-67
2023/01/20 02:43:30;;;;;;;11.48;5.57;;;;;;;;;;5023914;28;20049;-67
2023/01/20 02:46:03;;;;;;;10.25;5.05;;;;;;;;;;5019313;28;20029;-67
2023/01/20 02:48:34;;;;;;;12.57;5.90;;;-0.30;99.90;;;;;;5007594;28;20048;-68
2023/01/20 02:51:06;;;;;;;12.40;5.30;;;;;;;;;;5031537;28;20049;-68
2023/01/20 02:53:37;;;;;;;12.48;5.80;;;;;;;;;;5015059;28;20075;-67
2023/01/20 02:56:03;;;;;;;11.20;5.45;;;;;;;;;;5021531;28;20041;-67
2023/01/20 02:58:41;;;;;;;13.57;6.38;;;;;;;;;;5026487;28;20034;-67
2023/01/20 03:01:11;;;;;;;14.05;6.47;;;;;;;;;;5032107;28;20063;-67
2023/01/20 03:03:41;;;;;;;10.95;5.55;;;-0.10;99.90;;;;;;5024963;28;20037;-67
2023/01/20 03:06:10;;;;;;;15.25;7.03;;;;;;;;;;5032323;28;20034;-68
2023/01/20 03:08:36;;;;;;;13.02;7.43;;;;;;;;;;5028642;28;20041;-67
2023/01/20 03:11:04;;;;;;;14.20;6.75;;;;;;;;;;5016878;28;20100;-68
2023/01/20 03:13:47;;;;;;;17.35;7.35;;;-0.60;99.90;;;;;;5024367;28;20041;-68
2023/01/20 03:16:15;;;;;;;12.23;6.70;;;;;;;;;;5013561;28;20100;-67
2023/01/20 03:18:40;;;;;;;15.40;7.30;;;-0.30;99.90;;;;;;5024963;28;20120;-68
2023/01/20 03:21:08;;;;;;;13.82;8.07;;;0.10;99.90;;;;;;5021926;28;20171;-67
2023/01/20 03:23:36;;;;;;;16.00;8.38;;;;;;;;;;5023956;28;20230;-68
2023/01/20 03:26:04;;;;;;;16.63;8.27;;;;;;;;;;5028743;28;20482;-68
2023/01/20 03:28:30;;;;;;;16.45;8.95;;;;;;;;;;5030962;28;20391;-68
2023/01/20 03:30:56;;;;;;;18.60;9.63;;;-0.10;99.90;;;;;;5027006;28;20041;-67
2023/01/20 03:33:23;;;;;;;18.65;8.65;;;;;;;;;;5031638;28;20060;-67
2023/01/20 03:35:49;;;;;;;14.82;9.25;;;-0.10;99.90;;;;;;5019514;28;20487;-68
2023/01/20 03:38:15;;;;;;;16.13;9.20;;;;;;;;;;5021155;28;20038;-68
2023/01/20 03:40:48;;;;;;;15.27;8.35;;;;;;;;;;5031251;28;20120;-68
2023/01/20 03:43:18;;;;;;;18.27;8.68;;;-0.30;99.90;;;;;;5020007;28;20035;-68
2023/01/20 03:45:53;;;;;;;18.52;9.27;;;-0.80;99.90;;;;;;5029599;28;20392;-67
2023/01/20 03:48:25;;;;;;;16.33;9.70;;;;;;;;;;5030829;28;20048;-68
2023/01/20 03:50:55;;;;;;;19.60;9.82;;;0.20;99.90;;;;;;5013489;28;20140;-68
2023/01/20 03:53:46;;;;;;;17.13;9.00;;;-0.10;99.90;;;;;;5026724;28;20076;-65
2023/01/20 03:56:15;;;;;;;17.25;9.13;;;;;;;;;;5018783;28;20042;-66
2023/01/20 03:58:43;;;;;;;19.38;10.05;;;;;;;;;;5012599;28;20142;-66
2023/01/20 04:01:11;;;;;;;17.95;9.70;;;;;;;;;;5025667;28;20041;-66
2023/01/20 04:03:41;;;;;;;19.48;10.20;;;-1.00;99.90;;;;;;5018598;28;20368;-66
2023/01/20 04:06:10;;;;;;;17.35;10.15;;;-0.50;99.90;;;;;;5030211;28;20142;-65
2023/01/20 04:08:43;;;;;;;17.80;10.48;;;-0.20;99.90;;;;;;5026704;28;20495;-66
2023/01/20 04:11:09;;;;;;;21.60;11.00;;;-0.20;99.90;;;;;;5019316;28;20042;-66
2023/01/20 04:13:35;;;;;;;19.50;10.35;;;;;;;;;;5027199;28;20037;-65
2023/01/20 04:16:02;;;;;;;19.10;10.88;;;;;;;;;;5018832;28;20049;-67
2023/01/20 04:18:28;;;;;;;20.00;11.43;;;;;;;;;;5012028;28;20045;-66
2023/01/20 04:21:00;;;;;;;22.23;12.38;;;-0.60;99.90;;;;;;5009373;28;20049;-66
2023/01/20 04:23:38;;;;;;;23.52;12.25;;;-1.20;99.90;;;;;;4999334;28;20046;-66
2023/01/20 04:26:05;;;;;;;23.35;12.48;;;-0.80;99.90;;;;;;5022841;28;20037;-66
2023/01/20 04:28:31;;;;;;;27.08;13.88;;;;;;;;;;5030035;28;20052;-66
2023/01/20 04:30:57;;;;;;;30.42;15.07;;;;;;;;;;5022046;28;20033;-66
2023/01/20 04:33:23;;;;;;;32.20;15.60;;;-0.70;99.90;;;;;;5022611;28;20080;-66
2023/01/20 04:35:48;;;;;;;32.53;16.48;;;-0.60;99.90;;;;;;5025328;28;20514;-66
2023/01/20 04:38:14;;;;;;;36.72;17.88;;;;;;;;;;5028091;28;20403;-66
2023/01/20 04:40:40;;;;;;;33.67;18.38;;;;;;;;;;5028674;28;20042;-66
2023/01/20 04:43:08;;;;;;;35.90;18.98;;;;;;;;;;5017780;28;20037;-66
2023/01/20 04:45:34;;;;;;;37.65;20.35;;;;;;;;;;5022610;28;20147;-66
2023/01/20 04:48:00;;;;;;;44.25;19.90;;;;;;;;;;5028228;28;20037;-66
2023/01/20 04:50:26;;;;;;;47.95;21.67;;;-0.40;99.90;;;;;;5022177;28;20045;-66
2023/01/20 04:52:55;;;;;;;44.70;21.10;;;;;;;;;;5019022;28;20029;-66
2023/01/20 04:55:21;;;;;;;43.05;20.60;;;;;;;;;;5016227;28;20041;-66
2023/01/20 04:57:47;;;;;;;36.38;19.55;;;;;;;;;;5001392;28;20045;-66
2023/01/20 05:00:18;;;;;;;40.33;19.92;;;;;;;;;;5027285;28;20072;-67
2023/01/20 05:02:44;;;;;;;38.30;19.70;;;-0.50;99.90;;;;;;5022608;28;20073;-66
2023/01/20 05:05:10;;;;;;;43.63;20.10;;;-0.50;99.90;;;;;;5027349;28;20046;-66
2023/01/20 05:07:36;;;;;;;40.47;21.48;;;;;;;;;;5020884;28;20057;-66
2023/01/20 05:10:02;;;;;;;44.83;22.42;;;;;;;;;;5020953;28;20049;-66
2023/01/20 05:12:28;;;;;;;44.90;20.63;;;;;;;;;;5030023;28;20124;-66
2023/01/20 05:14:54;;;;;;;45.90;21.00;;;;;;;;;;5018061;28;20076;-69
2023/01/20 05:17:20;;;;;;;47.38;23.33;;;;;;;;;;5028592;28;20116;-68
2023/01/20 05:19:46;;;;;;;42.22;20.35;;;-0.50;99.90;;;;;;5020985;28;20125;-68
2023/01/20 05:22:11;;;;;;;44.47;21.98;;;-0.40;99.90;;;;;;5022695;28;20036;-68
2023/01/20 05:24:38;;;;;;;50.92;22.83;;;;;;;;;;5028738;28;20121;-69
2023/01/20 05:27:04;;;;;;;56.80;25.50;;;;;;;;;;5004826;28;20394;-68
2023/01/20 05:29:30;;;;;;;51.30;24.33;;;;;;;;;;5016250;28;20116;-68
2023/01/20 05:31:56;;;;;;;58.17;23.13;;;;;;;;;;4998045;28;20080;-68
2023/01/20 05:34:22;;;;;;;49.03;22.98;;;;;;;;;;5024702;28;20033;-68
2023/01/20 05:36:53;;;;;;;50.05;23.58;;;0.20;99.90;;;;;;5016560;28;20046;-69
2023/01/20 05:39:20;;;;;;;45.20;22.58;;;;;;;;;;5016878;28;20070;-66
2023/01/20 05:41:46;;;;;;;52.60;22.88;;;0.00;99.90;;;;;;5017097;28;20155;-67
2023/01/20 05:44:12;;;;;;;52.65;23.85;;;0.50;99.90;;;;;;5022518;28;20156;-67
2023/01/20 05:46:38;;;;;;;63.42;26.15;;;0.20;99.90;;;;;;5015337;28;20510;-66
2023/01/20 05:49:04;;;;;;;103.47;27.48;;;;;;;;;;5015222;28;20037;-66
2023/01/20 05:51:31;;;;;;;159.32;35.75;;;;;;;;;;4994009;28;20081;-66
2023/01/20 05:53:56;;;;;;;140.95;32.15;;;0.20;99.90;;;;;;5014932;28;20069;-67
2023/01/20 05:56:22;;;;;;;81.85;26.05;;;0.20;99.90;;;;;;5005769;28;20524;-67
2023/01/20 05:58:48;;;;;;;131.75;31.17;;;;;;;;;;5002528;28;20502;-66
2023/01/20 06:01:14;;;;;;;148.60;33.17;;;;;;;;;;4999237;28;20049;-66
2023/01/20 06:03:40;;;;;;;104.15;29.00;;;;;;;;;;5002544;28;20083;-66
2023/01/20 06:06:07;;;;;;;116.65;28.15;;;;;;;;;;5021255;28;20045;-66
2023/01/20 06:08:34;;;;;;;118.95;30.17;;;;;;;;;;5014334;28;20037;-68
2023/01/20 06:11:00;;;;;;;147.32;35.75;;;;;;;;;;4998700;28;20711;-69
2023/01/20 06:13:26;;;;;;;129.73;31.95;;;;;;;;;;5043776;22;20029;-67
2023/01/20 06:15:53;;;;;;;157.35;34.20;;;;;;;;;;5066571;28;20395;-68
2023/01/20 06:18:40;;;;;;;165.88;36.30;;;;;;;;;;5046556;28;20044;-67
2023/01/20 06:21:07;;;;;;;111.45;31.25;;;;;;;;;;5051218;28;20037;-71
2023/01/20 06:23:33;;;;;;;116.45;31.13;;;0.50;99.90;;;;;;5048633;28;20033;-70
2023/01/20 06:26:04;;;;;;;78.47;28.38;;;0.20;99.90;;;;;;5061939;28;20860;-70
2023/01/20 06:28:31;;;;;;;133.55;33.65;;;;;;;;;;5064945;28;20048;-70
2023/01/20 06:31:14;;;;;;;130.13;35.55;;;;;;;;;;5074984;28;20044;-70
2023/01/20 06:33:43;;;;;;;112.38;35.65;;;;;;;;;;5091142;28;20510;-70
2023/01/20 06:36:14;;;;;;;67.55;26.02;;;;;;;;;;5055839;28;20043;-70
2023/01/20 06:38:40;;;;;;;111.95;34.35;;;;;;;;;;5062953;28;20489;-70
2023/01/20 06:41:10;;;;;;;96.13;32.13;;;;;;;;;;5040433;28;20040;-70
2023/01/20 06:43:38;;;;;;;94.68;34.65;;;;;;;;;;5081470;28;20524;-71
2023/01/20 06:46:07;;;;;;;84.20;30.38;;;;;;;;;;5072926;28;20047;-70
2023/01/20 06:48:33;;;;;;;89.07;32.85;;;;;;;;;;5063430;28;20119;-70
2023/01/20 06:51:00;;;;;;;84.13;32.65;;;;;;;;;;5062685;28;20052;-70
2023/01/20 06:53:26;;;;;;;87.50;33.50;;;;;;;;;;5078787;28;20035;-70
2023/01/20 06:55:54;;;;;;;89.57;33.63;;;0.70;99.90;;;;;;5079378;28;20135;-70
2023/01/20 06:58:21;;;;;;;91.57;35.40;;;;;;;;;;5075562;28;20428;-71
2023/01/20 07:00:47;;;;;;;104.32;33.95;;;;;;;;;;5077997;28;20040;-70
2023/01/20 07:03:13;;;;;;;116.07;39.85;;;;;;;;;;5067093;28;20509;-70
2023/01/20 07:05:39;;;;;;;90.03;34.80;;;;;;;;;;5070184;28;20040;-71
2023/01/20 07:08:05;;;;;;;94.82;35.47;;;;;;;;;;5047414;28;20037;-71
2023/01/20 07:10:31;;;;;;;91.57;34.35;;;;;;;;;;5071153;28;20124;-71
2023/01/20 07:12:57;;;;;;;92.97;34.03;;;;;;;;;;5070368;28;20041;-71
2023/01/20 07:15:23;;;;;;;101.30;36.85;;;;;;;;;;5070740;28;20509;-70
2023/01/20 07:17:49;;;;;;;107.55;40.15;;;;;;;;;;5067974;28;20043;-71
2023/01/20 07:20:15;;;;;;;125.28;43.80;;;;;;;;;;5070799;28;20127;-70
2023/01/20 07:22:44;;;;;;;94.90;36.90;;;;;;;;;;5069830;28;20125;-70
2023/01/20 07:25:10;;;;;;;89.10;36.65;;;;;;;;;;5067236;28;20059;-71
2023/01/20 07:27:36;;;;;;;114.35;40.60;;;;;;;;;;5071151;28;20131;-70
2023/01/20 07:30:03;;;;;;;96.75;39.10;;;;;;;;;;5074656;28;20043;-70
2023/01/20 07:32:30;;;;;;;104.50;39.88;;;;;;;;;;5076771;28;20041;-70
2023/01/20 07:34:55;;;;;;;92.30;36.55;;;0.80;99.90;;;;;;5039674;28;20548;-70
2023/01/20 07:37:23;;;;;;;104.70;37.97;;;;;;;;;;5073176;28;20037;-70
2023/01/20 07:39:49;;;;;;;94.13;37.22;;;0.80;99.90;;;;;;5078364;28;20123;-70
2023/01/20 07:42:15;;;;;;;100.95;40.92;;;;;;;;;;5074096;28;20433;-70
2023/01/20 07:44:44;;;;;;;92.40;37.63;;;;;;;;;;5045683;28;20386;-70
2023/01/20 07:47:10;;;;;;;100.38;40.97;;;0.80;99.90;;;;;;5068342;28;20075;-71
2023/01/20 07:49:36;;;;;;;95.07;36.35;;;;;;;;;;5069616;28;20029;-70
2023/01/20 07:52:02;;;;;;;91.20;36.67;;;;;;;;;;5068651;28;20115;-70
2023/01/20 07:54:29;;;;;;;89.32;35.88;;;;;;;;;;5049979;28;20051;-70
2023/01/20 07:56:55;;;;;;;99.45;38.00;;;;;;;;;;5049689;28;20456;-71
2023/01/20 07:59:25;;;;;;;86.88;35.55;;;1.60;99.90;;;;;;5049736;28;20101;-71
2023/01/20 08:01:51;;;;;;;86.82;33.72;;;;;;;;;;5061763;28;20111;-70
2023/01/20 08:04:20;;;;;;;72.07;31.70;;;;;;;;;;5051405;28;20040;-71
2023/01/20 08:06:46;;;;;;;86.90;34.40;;;;;;;;;;5070475;28;20047;-71
2023/01/20 08:09:13;;;;;;;78.25;33.05;;;;;;;;;;5050199;28;20048;-71
2023/01/20 08:11:40;;;;;;;81.90;33.42;;;;;;;;;;5052800;28;20115;-70
2023/01/20 08:14:06;;;;;;;87.03;34.53;;;;;;;;;;5052511;28;20387;-70
2023/01/20 08:16:32;;;;;;;80.53;32.03;;;;;;;;;;5052183;28;20048;-70
2023/01/20 08:18:59;;;;;;;79.68;32.28;;;;;;;;;;5047908;28;20029;-70
2023/01/20 08:21:26;;;;;;;80.93;34.78;;;;;;;;;;5034419;28;20559;-70
2023/01/20 08:23:55;;;;;;;75.00;32.25;;;;;;;;;;5060910;28;20051;-71
2023/01/20 08:26:23;;;;;;;82.25;33.85;;;;;;;;;;5052634;28;20036;-70
2023/01/20 08:28:51;;;;;;;76.47;31.23;;;;;;;;;;5069934;28;20072;-70
2023/01/20 08:31:18;;;;;;;76.18;29.85;;;;;;;;;;5077007;28;20044;-70
2023/01/20 08:33:46;;;;;;;74.63;30.80;;;;;;;;;;5079404;28;20469;-70
2023/01/20 08:36:14;;;;;;;74.97;32.65;;;;;;;;;;5074862;28;20394;-70
2023/01/20 08:38:40;;;;;;;74.65;30.63;;;;;;;;;;5078542;28;20219;-70
2023/01/20 08:41:21;;;;;;;73.10;30.02;;;1.80;99.90;;;;;;5072273;28;20140;-70
2023/01/20 08:43:47;;;;;;;68.93;30.17;;;1.40;99.90;;;;;;5077180;28;20032;-70
2023/01/20 08:46:18;;;;;;;79.22;31.73;;;1.50;99.90;;;;;;5071744;28;20063;-70
2023/01/20 08:48:44;;;;;;;71.80;32.17;;;;;;;;;;5053063;28;20519;-70
2023/01/20 08:51:13;;;;;;;74.32;32.65;;;;;;;;;;5077873;28;20033;-70
2023/01/20 08:53:39;;;;;;;73.55;32.03;;;;;;;;;;5042905;28;20501;-70
2023/01/20 08:56:09;;;;;;;78.90;31.25;;;;;;;;;;5059614;28;20036;-70
2023/01/20 08:58:37;;;;;;;70.45;32.38;;;1.60;99.90;;;;;;5056453;28;20566;-70
2023/01/20 09:01:08;;;;;;;73.57;32.70;;;;;;;;;;5076578;28;20032;-70
2023/01/20 09:03:34;;;;;;;79.32;31.17;;;;;;;;;;5067949;28;20480;-70
2023/01/20 09:06:01;;;;;;;71.93;32.00;;;;;;;;;;5057416;28;20068;-70
2023/01/20 09:08:28;;;;;;;70.57;30.23;;;;;;;;;;5079430;28;20563;-70
2023/01/20 09:10:56;;;;;;;71.47;31.77;;;;;;;;;;5074728;28;20119;-70
2023/01/20 09:13:22;;;;;;;76.95;33.95;;;1.60;99.90;;;;;;5077588;28;20047;-70
2023/01/20 09:15:52;;;;;;;63.50;29.33;;;1.80;99.90;;;;;;5074086;28;20040;-70
2023/01/20 09:18:18;;;;;;;80.72;32.50;;;1.50;99.90;;;;;;5031359;28;20041;-70
2023/01/20 09:20:44;;;;;;;73.63;28.95;;;;;;;;;;5045950;28;20049;-70
2023/01/20 09:23:10;;;;;;;76.35;30.67;;;;;;;;;;5064428;28;20044;-73
2023/01/20 09:25:36;;;;;;;80.72;31.35;;;;;;;;;;5068930;28;20040;-70
2023/01/20 09:28:02;;;;;;;68.00;31.35;;;;;;;;;;5047911;28;20048;-70
2023/01/20 09:30:28;;;;;;;62.55;27.95;;;;;;;;;;5067592;28;20115;-71
2023/01/20 09:32:59;;;;;;;65.47;28.90;;;;;;;;;;5061022;28;20048;-70
2023/01/20 09:35:25;;;;;;;74.72;30.40;;;1.20;99.90;;;;;;5052695;28;20037;-70
2023/01/20 09:43:55;;;;;;;66.65;28.67;;;2.30;99.90;;;;;;5064870;28;20029;-71
2023/01/20 09:46:21;;;;;;;65.43;27.95;;;;;;;;;;5027143;28;20106;-70
2023/01/20 09:54:26;;;;;;;62.40;26.50;;;;;;;;;;5052972;28;20121;-71
2023/01/20 09:56:54;;;;;;;60.00;28.48;;;;;;;;;;5067179;28;20051;-71
2023/01/20 09:59:34;;;;;;;59.92;26.33;;;;;;;;;;5068372;28;20044;-71
2023/01/20 10:02:03;;;;;;;60.95;26.15;;;;;;;;;;5064166;28;20035;-71
2023/01/20 10:04:32;;;;;;;54.50;24.23;;;;;;;;;;5051740;28;20047;-71
2023/01/20 10:07:05;;;;;;;57.20;25.15;;;;;;;;;;5072019;28;20094;-70
2023/01/20 10:09:33;;;;;;;65.05;28.98;;;;;;;;;;5070638;28;20075;-71
2023/01/20 10:12:05;;;;;;;54.30;24.88;;;;;;;;;;5047243;28;20043;-72
2023/01/20 10:14:35;;;;;;;54.63;23.85;;;2.50;99.90;;;;;;5069512;28;20028;-71
2023/01/20 10:17:06;;;;;;;55.08;25.17;;;;;;;;;;5081894;22;20146;-79
2023/01/20 10:20:01;;;;;;;63.40;27.10;;;1.90;99.90;;;;;;5048852;28;20051;-79
2023/01/20 10:22:51;;;;;;;52.40;22.63;;;2.10;99.90;;;;;;5018384;28;20045;-80
2023/01/20 10:25:20;;;;;;;58.20;25.33;;;;;;;;;;5042830;28;20051;-79
2023/01/20 10:27:50;;;;;;;58.17;24.17;;;;;;;;;;5036184;28;20036;-79
2023/01/20 10:30:17;;;;;;;54.22;24.45;;;;;;;;;;5035063;28;20033;-79
2023/01/20 10:32:57;;;;;;;53.03;24.17;;;;;;;;;;5034744;28;20041;-79
2023/01/20 10:35:25;;;;;;;55.75;23.52;;;;;;;;;;5012255;28;20034;-79
2023/01/20 10:37:52;;;;;;;58.60;26.10;;;;;;;;;;5028157;28;20082;-79
2023/01/20 10:40:53;;;;;;;53.30;24.35;;;1.80;99.90;;;;;;5038224;28;20086;-79
2023/01/20 10:43:19;;;;;;;57.35;26.98;;;2.70;99.90;;;;;;4999402;28;20450;-79
2023/01/20 10:45:57;;;;;;;57.92;28.38;;;;;;;;;;5036046;28;20109;-79
2023/01/20 10:48:35;;;;;;;57.25;26.27;;;;;;;;;;5040602;28;20036;-79
2023/01/20 10:51:10;;;;;;;51.15;22.15;;;;;;;;;;5041537;28;20029;-79
2023/01/20 10:54:04;;;;;;;52.47;24.45;;;2.40;99.90;;;;;;5042023;28;20040;-79
2023/01/20 10:56:36;;;;;;;57.53;26.30;;;;;;;;;;5029303;28;20041;-79
2023/01/20 10:59:13;;;;;;;59.05;25.67;;;;;;;;;;5013112;28;20039;-72
2023/01/20 11:01:40;;;;;;;57.05;29.40;;;;;;;;;;5046044;28;20120;-72
2023/01/20 11:04:06;;;;;;;51.50;23.23;;;;;;;;;;5041062;28;20044;-71
2023/01/20 11:06:32;;;;;;;49.63;22.90;;;;;;;;;;5015358;28;20447;-73
2023/01/20 11:09:14;;;;;;;48.10;26.92;;;2.70;99.90;;;;;;5051474;28;20049;-72
2023/01/20 11:11:40;;;;;;;45.08;24.83;;;;;;;;;;5017834;28;20434;-72
2023/01/20 11:14:07;;;;;;;51.13;22.15;;;;;;;;;;5045312;28;20069;-73
2023/01/20 11:16:33;;;;;;;51.47;24.40;;;2.60;99.90;;;;;;5045626;28;20094;-71
2023/01/20 11:19:00;;;;;;;46.53;21.23;;;;;;;;;;5039071;28;20037;-72
2023/01/20 11:21:28;;;;;;;48.85;24.52;;;;;;;;;;5046293;28;20037;-75
2023/01/20 11:23:55;;;;;;;43.10;20.90;;;;;;;;;;5017556;28;20497;-75
2023/01/20 11:26:23;;;;;;;45.97;21.90;;;;;;;;;;5026405;28;20040;-72
2023/01/20 11:28:59;;;;;;;41.22;21.92;;;;;;;;;;5036353;28;20037;-76
2023/01/20 11:31:38;;;;;;;44.75;20.67;;;;;;;;;;5016621;28;20130;-74
2023/01/20 11:34:20;;;;;;;42.35;21.67;;;;;;;;;;5022044;28;20037;-72
2023/01/20 11:36:45;;;;;;;45.95;20.33;;;2.90;99.90;;;;;;5026581;28;20041;-74
2023/01/20 11:39:27;;;;;;;48.97;21.80;;;3.00;99.90;;;;;;5011657;28;20044;-75
2023/01/20 11:42:25;;;;;;;43.20;21.50;;;2.30;99.90;;;;;;5031007;28;20034;-75
2023/01/20 11:45:01;;;;;;;51.60;25.80;;;3.00;99.90;;;;;;4979443;28;20073;-75
2023/01/20 11:47:33;;;;;;;48.70;25.13;;;2.60;99.90;;;;;;5026303;28;20045;-75
2023/01/20 11:50:19;;;;;;;46.08;22.85;;;;;;;;;;5009964;28;20045;-75
2023/01/20 11:52:46;;;;;;;50.65;26.95;;;2.80;99.90;;;;;;5042877;28;20048;-74
2023/01/20 11:55:12;;;;;;;57.67;32.47;;;;;;;;;;5026706;28;20540;-75
2023/01/20 11:57:38;;;;;;;48.38;21.98;;;;;;;;;;5039066;28;20036;-75
2023/01/20 12:00:27;;;;;;;62.92;34.05;;;3.00;99.90;;;;;;5062282;28;20029;-75
2023/01/20 12:03:13;;;;;;;107.28;55.42;;;;;;;;;;5057952;28;20036;-77
2023/01/20 12:05:56;;;;;;;75.10;40.38;;;;;;;;;;5027159;28;20033;-76
2023/01/20 12:08:31;;;;;;;80.00;41.83;;;;;;;;;;5022940;28;20045;-76
2023/01/20 12:10:57;;;;;;;;;;;;;;;;;;5026424;28;20045;-75
2023/01/20 12:14:18;;;;;;;49.60;25.75;;;2.50;99.90;;;;;;5021593;28;20405;-77
2023/01/20 12:16:07;;;;;;;43.25;26.70;;;2.40;99.90;;;;;;5086821;22;20173;-65
2023/01/20 12:18:33;;;;;;;47.50;25.02;;;;;;;;;;5032670;28;20099;-64
2023/01/20 12:21:19;;;;;;;42.80;22.02;;;;;;;;;;5049804;28;20029;-65
2023/01/20 12:23:45;;;;;;;42.42;22.88;;;;;;;;;;5050604;28;20094;-65
2023/01/20 12:26:22;;;;;;;37.42;19.00;;;3.00;99.90;;;;;;5032962;28;20052;-64
2023/01/20 12:29:08;;;;;;;41.03;19.27;;;;;;;;;;5032855;28;20212;-65
2023/01/20 12:31:34;;;;;;;38.92;18.08;;;;;;;;;;5038033;28;20048;-65
2023/01/20 12:34:04;;;;;;;33.97;17.15;;;3.20;99.90;;;;;;5058705;28;20521;-64
2023/01/20 12:36:33;;;;;;;41.60;20.38;;;3.20;79.10;;;;;;5056845;28;20447;-65
2023/01/20 12:39:02;;;;;;;38.63;19.55;;;;;;;;;;5057004;28;20037;-65
2023/01/20 12:41:39;;;;;;;38.97;21.98;;;2.90;85.40;;;;;;5029347;28;20033;-65
2023/01/20 12:44:26;;;;;;;36.55;17.55;;;3.10;92.40;;;;;;5042198;28;20033;-65
2023/01/20 12:46:58;;;;;;;38.67;18.85;;;;;;;;;;5028171;28;20077;-64
2023/01/20 12:49:40;;;;;;;38.78;18.33;;;;;;;;;;5043958;28;20406;-64
2023/01/20 12:52:06;;;;;;;36.20;18.05;;;;;;;;;;5045574;28;20032;-64
2023/01/20 12:54:56;;;;;;;33.28;17.88;;;3.10;73.70;;;;;;5050325;28;20048;-64
2023/01/20 12:57:42;;;;;;;36.30;16.88;;;;;;;;;;5046404;28;20040;-64
2023/01/20 13:00:35;;;;;;;34.50;17.90;;;3.90;79.50;;;;;;5050169;28;20052;-64
2023/01/20 13:03:44;;;;;;;36.97;19.30;;;3.00;81.50;;;;;;5026067;28;20036;-65
2023/01/20 13:06:39;;;;;;;31.25;16.38;;;3.00;69.90;;;;;;5049227;28;20037;-64
2023/01/20 13:09:17;;;;;;;29.48;16.20;;;;;;;;;;5044444;28;20041;-65
2023/01/20 13:12:17;;;;;;;34.78;16.65;;;3.30;44.80;;;;;;5049656;28;20458;-65
2023/01/20 13:14:52;;;;;;;33.38;17.10;;;3.20;51.20;;;;;;5049520;28;20073;-65
2023/01/20 13:17:29;;;;;;;38.22;17.63;;;;;;;;;;5050381;28;20044;-64
2023/01/20 13:19:58;;;;;;;28.92;14.93;;;3.80;48.20;;;;;;5046767;28;20036;-64
2023/01/20 13:22:25;;;;;;;32.80;15.80;;;;;;;;;;5035911;28;20037;-65
2023/01/20 13:24:57;;;;;;;37.67;16.10;;;2.80;21.50;;;;;;5053608;28;20236;-65
2023/01/20 13:27:31;;;;;;;29.60;15.18;;;;;;;;;;5053182;28;20040;-65
2023/01/20 13:29:59;;;;;;;33.55;14.48;;;;;;;;;;5049185;28;20114;-64
2023/01/20 13:32:45;;;;;;;37.38;15.75;;;;;;;;;;5033994;28;20041;-65
2023/01/20 13:35:17;;;;;;;28.33;14.15;;;;;;;;;;5051295;28;20044;-64
2023/01/20 13:37:51;;;;;;;25.65;13.27;;;;;;;;;;5048487;28;20147;-64
2023/01/20 13:40:34;;;;;;;25.65;13.48;;;3.40;1.00;;;;;;5050099;28;20041;-65
2023/01/20 13:43:20;;;;;;;27.83;15.18;;;3.10;18.20;;;;;;5027239;28;20040;-64
2023/01/20 13:45:47;;;;;;;30.58;15.27;;;;;;;;;;5049175;28;20041;-64
2023/01/20 13:48:12;;;;;;;29.48;14.50;;;3.20;23.70;;;;;;5047449;28;20044;-64
2023/01/20 13:50:42;;;;;;;31.67;14.65;;;;;;;;;;5043835;28;20450;-64
2023/01/20 13:53:21;;;;;;;29.35;15.10;;;;;;;;;;5033361;28;20194;-64
2023/01/20 13:55:47;;;;;;;25.38;15.10;;;;;;;;;;5047832;28;20075;-64
2023/01/20 13:58:13;;;;;;;28.98;14.23;;;;;;;;;;5047019;28;20041;-64
2023/01/20 14:00:39;;;;;;;29.35;15.38;;;;;;;;;;5026253;28;20041;-65
2023/01/20 14:03:29;;;;;;;28.95;14.23;;;;;;;;;;5036606;28;20376;-64
2023/01/20 14:06:05;;;;;;;28.38;13.73;;;3.60;1.00;;;;;;5046261;28;20036;-65
2023/01/20 14:08:42;;;;;;;32.50;14.90;;;2.80;5.80;;;;;;5045027;28;20040;-64
2023/01/20 14:11:22;;;;;;;31.67;17.17;;;3.00;1.00;;;;;;5030879;28;20449;-64
2023/01/20 14:13:52;;;;;;;31.17;16.83;;;;;;;;;;5045176;28;20041;-64
2023/01/20 14:16:24;;;;;;;30.77;15.95;;;;;;;;;;5014437;28;20048;-64
2023/01/20 14:18:58;;;;;;;30.75;15.60;;;3.70;1.00;;;;;;5026605;28;20143;-64
2023/01/20 14:21:25;;;;;;;34.70;18.48;;;;;;;;;;5052760;28;20037;-64
2023/01/20 14:23:52;;;;;;;31.55;16.25;;;;;;;;;;5052665;28;20037;-65
2023/01/20 14:26:26;;;;;;;34.35;17.33;;;2.80;26.60;;;;;;5029444;28;20041;-65
2023/01/20 14:28:57;;;;;;;35.63;17.55;;;2.80;7.20;;;;;;5051300;28;20036;-65
2023/01/20 14:31:34;;;;;;;28.85;14.45;;;;;;;;;;5060063;28;20041;-64
2023/01/20 14:34:02;;;;;;;26.25;12.65;;;;;;;;;;5060433;28;20513;-64